Time;durP1;ratioP1;P1;durP2;ratioP2;P2;SDS_P1;SDS_P2;PMS_P1;PMS_P2;Temp;Humidity;BMP_temperature;BMP_pressure;BME280_temperature;BME280_humidity;BME280_pressure;Samples;Min_cycle;Max_cycle;Signal;HPM_P1;HPM_P2
2024/04/27 00:01:00;;;;;;;31.87;23.97;;;7.30;99.90;;;;;;5371765;26;20557;-73
2024/04/27 00:03:26;;;;;;;32.37;22.23;;;7.30;99.90;;;;;;5370557;26;20234;-73
2024/04/27 00:05:52;;;;;;;29.17;21.40;;;7.30;99.90;;;;;;5369894;26;20264;-73
2024/04/27 00:08:17;;;;;;;32.73;22.43;;;7.20;99.90;;;;;;5369266;26;20307;-73
2024/04/27 00:10:43;;;;;;;32.53;20.90;;;7.20;99.90;;;;;;5369429;26;20225;-72
2024/04/27 00:13:10;;;;;;;32.83;21.73;;;7.20;99.90;;;;;;5369206;26;20615;-73
2024/04/27 00:15:36;;;;;;;34.27;23.83;;;7.20;99.90;;;;;;5369695;26;20616;-73
2024/04/27 00:18:01;;;;;;;36.37;22.80;;;7.20;99.90;;;;;;5369416;26;20210;-73
2024/04/27 00:20:27;;;;;;;34.03;22.13;;;7.10;99.90;;;;;;5368973;26;20237;-72
2024/04/27 00:22:52;;;;;;;40.80;24.93;;;7.10;99.90;;;;;;5369001;26;20222;-73
2024/04/27 00:25:18;;;;;;;35.07;24.10;;;7.10;99.90;;;;;;5369479;26;20317;-72
2024/04/27 00:27:46;;;;;;;44.53;25.27;;;7.20;99.90;;;;;;5369498;26;20511;-73
2024/04/27 00:30:11;;;;;;;37.70;24.37;;;7.20;99.90;;;;;;5338529;26;20325;-73
2024/04/27 00:32:37;;;;;;;39.13;26.80;;;7.20;99.90;;;;;;5368854;26;20717;-73
2024/04/27 00:35:03;;;;;;;37.70;24.97;;;7.20;99.90;;;;;;5369096;26;20813;-73
2024/04/27 00:37:29;;;;;;;38.57;26.73;;;7.20;99.90;;;;;;5369374;26;20297;-73
2024/04/27 00:39:54;;;;;;;37.53;25.37;;;7.20;99.90;;;;;;5368701;26;20264;-73
2024/04/27 00:42:20;;;;;;;41.20;25.93;;;7.20;99.90;;;;;;5368783;26;20693;-73
2024/04/27 00:44:45;;;;;;;38.77;25.80;;;7.20;99.90;;;;;;5369014;26;20311;-73
2024/04/27 00:47:15;;;;;;;38.00;25.53;;;7.30;99.90;;;;;;5368962;26;20351;-73
2024/04/27 00:49:42;;;;;;;40.80;26.03;;;7.20;99.90;;;;;;5369063;26;20248;-73
2024/04/27 00:52:09;;;;;;;42.37;25.90;;;7.30;99.90;;;;;;5368530;26;20615;-73
2024/04/27 00:54:37;;;;;;;40.20;24.93;;;7.30;99.90;;;;;;5368874;26;20371;-73
2024/04/27 00:57:03;;;;;;;39.93;25.77;;;7.30;99.90;;;;;;5368685;26;20205;-73
2024/04/27 00:59:30;;;;;;;39.37;25.50;;;7.30;99.90;;;;;;5368311;26;20322;-72
2024/04/27 01:01:55;;;;;;;37.57;23.83;;;7.30;99.90;;;;;;5368392;26;20213;-73
2024/04/27 01:04:21;;;;;;;40.17;25.53;;;7.20;99.90;;;;;;5368420;26;20288;-73
2024/04/27 01:06:46;;;;;;;34.83;24.80;;;7.20;99.90;;;;;;5368615;26;20350;-74
2024/04/27 01:09:12;;;;;;;30.83;23.73;;;7.20;99.90;;;;;;5368741;26;20214;-73
2024/04/27 01:11:38;;;;;;;35.40;24.00;;;7.20;99.90;;;;;;5368584;26;20547;-73
2024/04/27 01:14:03;;;;;;;30.00;23.40;;;7.20;99.90;;;;;;5368451;26;20225;-73
2024/04/27 01:16:29;;;;;;;29.57;22.20;;;7.10;99.90;;;;;;5368428;26;20213;-73
2024/04/27 01:18:55;;;;;;;34.67;23.93;;;7.10;99.90;;;;;;5368179;26;20226;-73
2024/04/27 01:21:21;;;;;;;34.73;23.53;;;7.10;99.90;;;;;;5368312;26;20261;-72
2024/04/27 01:23:46;;;;;;;32.80;21.93;;;7.10;99.90;;;;;;5337330;26;20237;-72
2024/04/27 01:26:12;;;;;;;31.87;22.03;;;7.10;99.90;;;;;;5368329;26;21240;-73
2024/04/27 01:28:38;;;;;;;28.63;21.60;;;7.10;99.90;;;;;;5368348;26;20724;-73
2024/04/27 01:31:03;;;;;;;31.73;20.53;;;7.10;99.90;;;;;;5368323;26;20684;-73
2024/04/27 01:33:29;;;;;;;27.70;18.43;;;7.10;99.90;;;;;;5368088;26;20764;-73
2024/04/27 01:35:55;;;;;;;24.83;18.93;;;7.10;99.90;;;;;;5368218;26;20813;-73
2024/04/27 01:38:20;;;;;;;25.37;19.20;;;7.10;99.90;;;;;;5368244;26;20221;-73
2024/04/27 01:40:46;;;;;;;22.87;17.10;;;7.00;99.90;;;;;;5368129;26;20210;-73
2024/04/27 01:43:12;;;;;;;27.03;18.47;;;7.00;99.90;;;;;;5405234;20;20267;-71
2024/04/27 01:45:37;;;;;;;24.73;18.23;;;7.10;99.90;;;;;;5414480;26;20208;-71
2024/04/27 01:48:03;;;;;;;26.50;18.40;;;7.00;99.90;;;;;;5413971;26;20236;-71
2024/04/27 01:50:29;;;;;;;24.40;17.70;;;7.00;99.90;;;;;;5414292;26;20654;-72
2024/04/27 01:52:54;;;;;;;22.93;16.67;;;7.00;99.90;;;;;;5413909;26;20220;-73
2024/04/27 01:55:20;;;;;;;20.23;15.77;;;6.90;99.90;;;;;;5414280;26;20208;-73
2024/04/27 01:57:46;;;;;;;23.07;16.33;;;6.90;99.90;;;;;;5414436;26;20317;-73
2024/04/27 02:00:12;;;;;;;19.70;15.23;;;6.90;99.90;;;;;;5413774;26;20228;-72
2024/04/27 02:02:37;;;;;;;21.80;15.20;;;6.90;99.90;;;;;;5413812;26;20317;-72
2024/04/27 02:05:03;;;;;;;20.17;15.13;;;6.90;99.90;;;;;;5414250;26;20216;-72
2024/04/27 02:07:29;;;;;;;19.87;14.60;;;6.80;99.90;;;;;;5413907;26;20741;-72
2024/04/27 02:09:54;;;;;;;18.60;14.57;;;6.90;99.90;;;;;;5413536;26;20317;-72
2024/04/27 02:12:20;;;;;;;22.93;15.30;;;6.80;99.90;;;;;;5385551;26;20592;-72
2024/04/27 02:14:46;;;;;;;18.53;14.13;;;6.80;99.90;;;;;;5417117;26;20271;-72
2024/04/27 02:19:56;;;;;;;19.83;14.33;;;6.70;99.90;;;;;;5417395;26;20251;-72
2024/04/27 02:22:22;;;;;;;22.80;14.70;;;6.70;99.90;;;;;;5417019;26;20209;-72
2024/04/27 02:24:47;;;;;;;17.30;14.00;;;6.70;99.90;;;;;;5386251;26;20271;-72
2024/04/27 02:27:13;;;;;;;23.13;14.23;;;6.70;99.90;;;;;;5417513;26;20238;-72
2024/04/27 02:29:38;;;;;;;17.60;14.40;;;6.70;99.90;;;;;;5416897;26;20232;-72
2024/04/27 02:32:04;;;;;;;19.53;14.47;;;6.70;99.90;;;;;;5417117;26;20299;-72
2024/04/27 02:34:30;;;;;;;18.87;14.33;;;6.70;99.90;;;;;;5417304;26;20272;-72
2024/04/27 02:36:56;;;;;;;17.37;13.37;;;6.70;99.90;;;;;;5417754;26;20224;-72
2024/04/27 02:39:21;;;;;;;18.07;13.13;;;6.70;99.90;;;;;;5418190;26;20259;-72
2024/04/27 02:41:47;;;;;;;14.47;12.63;;;6.60;99.90;;;;;;5417354;26;20767;-72
2024/04/27 02:44:13;;;;;;;18.80;13.17;;;6.60;99.90;;;;;;5417612;26;20271;-72
2024/04/27 02:46:39;;;;;;;14.00;12.50;;;6.60;99.90;;;;;;5416725;26;20232;-72
2024/04/27 02:49:04;;;;;;;14.13;12.63;;;6.60;99.90;;;;;;5417851;26;20316;-73
2024/04/27 02:51:30;;;;;;;15.80;12.10;;;6.60;99.90;;;;;;5417401;26;20212;-72
2024/04/27 02:53:55;;;;;;;16.07;12.33;;;6.50;99.90;;;;;;5416756;26;20228;-72
2024/04/27 02:56:21;;;;;;;14.83;13.27;;;6.50;99.90;;;;;;5385475;26;20228;-72
2024/04/27 02:58:46;;;;;;;14.07;12.63;;;6.50;99.90;;;;;;5417163;26;20600;-72
2024/04/27 03:01:13;;;;;;;15.07;11.40;;;6.50;99.90;;;;;;5416662;26;20577;-72
2024/04/27 03:03:38;;;;;;;17.20;12.00;;;6.50;99.90;;;;;;5416899;26;20262;-72
2024/04/27 03:06:04;;;;;;;13.40;12.00;;;6.50;99.90;;;;;;5416470;26;20220;-72
2024/04/27 03:08:30;;;;;;;14.27;12.43;;;6.50;99.90;;;;;;5416821;26;20259;-72
2024/04/27 03:10:56;;;;;;;15.33;12.23;;;6.50;99.90;;;;;;5416833;26;20254;-72
2024/04/27 03:13:21;;;;;;;15.13;11.43;;;6.50;99.90;;;;;;5416424;26;20602;-72
2024/04/27 03:15:47;;;;;;;13.13;11.37;;;6.40;99.90;;;;;;5416808;26;20213;-72
2024/04/27 03:18:13;;;;;;;13.87;11.53;;;6.40;99.90;;;;;;5416500;26;20212;-72
2024/04/27 03:20:39;;;;;;;12.20;10.87;;;6.40;99.90;;;;;;5415991;26;20263;-72
2024/04/27 03:23:04;;;;;;;12.83;11.47;;;6.40;99.90;;;;;;5416350;26;20251;-72
2024/04/27 03:25:30;;;;;;;12.50;11.30;;;6.40;99.90;;;;;;5416711;26;20220;-72
2024/04/27 03:27:56;;;;;;;14.80;11.83;;;6.40;99.90;;;;;;5416466;26;20324;-72
2024/04/27 03:30:21;;;;;;;16.30;11.67;;;6.40;99.90;;;;;;5416275;26;20283;-72
2024/04/27 03:32:47;;;;;;;18.37;11.87;;;6.40;99.90;;;;;;5416431;26;20763;-72
2024/04/27 03:35:12;;;;;;;13.43;11.23;;;6.40;99.90;;;;;;5416229;26;20208;-73
2024/04/27 03:37:38;;;;;;;15.27;12.30;;;6.40;99.90;;;;;;5416492;26;20208;-72
2024/04/27 03:40:07;;;;;;;14.60;12.23;;;6.40;99.90;;;;;;5415861;26;20267;-72
2024/04/27 03:42:33;;;;;;;16.53;11.73;;;6.50;99.90;;;;;;5416342;26;20250;-72
2024/04/27 03:44:59;;;;;;;12.03;10.87;;;6.50;99.90;;;;;;5416152;26;20703;-72
2024/04/27 03:47:25;;;;;;;15.77;12.60;;;6.50;99.90;;;;;;5416800;26;20208;-72
2024/04/27 03:49:51;;;;;;;15.50;11.87;;;6.50;99.90;;;;;;5415863;26;20256;-72
2024/04/27 03:52:16;;;;;;;13.53;12.07;;;6.60;99.90;;;;;;5415763;26;20336;-72
2024/04/27 03:54:42;;;;;;;13.23;11.47;;;6.60;99.90;;;;;;5416261;26;20309;-72
2024/04/27 03:57:09;;;;;;;12.80;11.50;;;6.60;99.90;;;;;;5416098;26;20742;-72
2024/04/27 03:59:38;;;;;;;12.10;11.00;;;6.60;99.90;;;;;;5416143;26;20251;-72
2024/04/27 04:02:04;;;;;;;12.03;10.83;;;6.60;99.90;;;;;;5415774;26;20254;-72
2024/04/27 04:04:30;;;;;;;12.40;11.20;;;6.70;99.90;;;;;;5416046;26;20321;-72
2024/04/27 04:06:57;;;;;;;12.77;10.73;;;6.70;99.90;;;;;;5415769;26;20216;-72
2024/04/27 04:09:25;;;;;;;11.93;10.40;;;6.70;99.90;;;;;;5416214;26;20667;-72
2024/04/27 04:11:51;;;;;;;13.10;11.17;;;6.70;99.90;;;;;;5416125;26;20604;-72
2024/04/27 04:14:16;;;;;;;11.47;10.10;;;6.80;99.90;;;;;;5416016;26;20285;-72
2024/04/27 04:16:42;;;;;;;11.20;10.10;;;6.90;99.90;;;;;;5416202;26;20702;-72
2024/04/27 04:19:08;;;;;;;15.27;10.70;;;6.90;99.90;;;;;;5415719;26;20258;-72
2024/04/27 04:21:34;;;;;;;11.30;9.60;;;7.00;99.90;;;;;;5415436;26;20220;-72
2024/04/27 04:24:00;;;;;;;10.47;9.47;;;7.00;99.90;;;;;;5415623;26;20220;-72
2024/04/27 04:26:26;;;;;;;10.60;9.50;;;7.10;99.90;;;;;;5415809;26;20212;-72
2024/04/27 04:28:52;;;;;;;11.07;9.90;;;7.10;99.90;;;;;;5415978;26;20679;-72
2024/04/27 04:31:18;;;;;;;12.50;8.93;;;7.20;99.90;;;;;;5414603;26;20652;-72
2024/04/27 04:33:43;;;;;;;9.97;8.97;;;7.30;99.90;;;;;;5412856;26;20284;-72
2024/04/27 04:36:09;;;;;;;11.37;9.33;;;7.30;99.90;;;;;;5415243;26;20228;-72
2024/04/27 04:38:34;;;;;;;10.13;9.13;;;7.30;99.90;;;;;;5415526;26;20692;-72
2024/04/27 04:41:00;;;;;;;15.03;9.03;;;7.40;99.90;;;;;;5415199;26;20259;-71
2024/04/27 04:43:31;;;;;;;11.83;9.77;;;7.40;99.90;;;;;;5415185;26;20220;-72
2024/04/27 04:46:00;;;;;;;11.97;9.43;;;7.50;99.90;;;;;;5415409;26;20305;-72
2024/04/27 04:48:31;;;;;;;12.50;8.77;;;7.60;99.90;;;;;;5414863;26;20543;-72
2024/04/27 04:51:01;;;;;;;10.53;9.47;;;7.70;99.90;;;;;;5415255;26;20204;-72
2024/04/27 04:53:28;;;;;;;10.37;9.07;;;7.80;99.90;;;;;;5415262;26;20236;-72
2024/04/27 04:55:53;;;;;;;10.97;9.40;;;7.90;99.90;;;;;;5415585;26;20263;-72
2024/04/27 04:58:19;;;;;;;10.53;9.30;;;7.90;99.90;;;;;;5415311;26;20272;-72
2024/04/27 05:00:45;;;;;;;10.00;9.00;;;8.10;99.90;;;;;;5415076;26;20629;-72
2024/04/27 05:03:12;;;;;;;9.43;8.53;;;8.20;99.90;;;;;;5414131;26;20291;-72
2024/04/27 05:05:38;;;;;;;11.57;9.73;;;8.20;99.90;;;;;;5415079;26;20246;-72
2024/04/27 05:08:05;;;;;;;11.50;9.03;;;8.30;99.90;;;;;;5414983;26;20212;-72
2024/04/27 05:10:30;;;;;;;11.33;9.40;;;8.40;99.90;;;;;;5414890;26;20224;-72
2024/04/27 05:12:56;;;;;;;10.63;8.90;;;8.40;99.90;;;;;;5414541;26;20324;-72
2024/04/27 05:15:21;;;;;;;9.90;8.90;;;8.50;99.90;;;;;;5414843;26;20204;-72
2024/04/27 05:17:47;;;;;;;13.97;9.00;;;8.60;99.90;;;;;;5414812;26;20727;-72
2024/04/27 05:20:12;;;;;;;9.70;8.70;;;8.70;99.90;;;;;;5414394;26;20201;-72
2024/04/27 05:22:38;;;;;;;10.50;9.30;;;8.70;99.90;;;;;;5414480;26;20208;-72
2024/04/27 05:25:04;;;;;;;9.10;8.30;;;8.70;99.90;;;;;;5414525;26;20309;-72
2024/04/27 05:27:29;;;;;;;9.67;8.67;;;8.70;99.90;;;;;;5413711;26;20220;-72
2024/04/27 05:29:55;;;;;;;11.10;8.73;;;8.80;99.90;;;;;;5414548;26;20612;-72
2024/04/27 05:32:20;;;;;;;14.23;9.03;;;8.80;99.90;;;;;;5414797;26;20209;-72
2024/04/27 05:34:46;;;;;;;9.23;8.50;;;9.00;99.90;;;;;;5414335;26;20267;-72
2024/04/27 05:37:12;;;;;;;9.77;8.73;;;9.10;99.90;;;;;;5414159;26;20312;-72
2024/04/27 05:39:37;;;;;;;8.73;7.93;;;9.20;99.90;;;;;;5414476;26;20753;-72
2024/04/27 05:42:03;;;;;;;8.60;7.80;;;9.40;99.90;;;;;;5413842;26;20220;-73
2024/04/27 05:44:29;;;;;;;8.87;8.07;;;9.50;99.90;;;;;;5413954;26;20297;-72
2024/04/27 05:46:55;;;;;;;7.93;7.13;;;9.60;99.90;;;;;;5417875;26;20228;-72
2024/04/27 05:49:20;;;;;;;10.87;7.83;;;9.70;99.90;;;;;;5417470;26;20766;-72
2024/04/27 05:51:46;;;;;;;7.30;6.60;;;9.80;99.90;;;;;;5417443;26;20317;-72
2024/04/27 05:54:11;;;;;;;7.37;6.73;;;9.80;99.90;;;;;;5417274;26;20293;-72
2024/04/27 05:56:37;;;;;;;7.23;6.63;;;9.90;99.90;;;;;;5417645;26;20263;-72
2024/04/27 05:59:02;;;;;;;6.83;6.20;;;10.00;99.90;;;;;;5417272;26;20711;-72
2024/04/27 06:01:28;;;;;;;7.03;6.37;;;10.20;99.90;;;;;;5417353;26;20254;-72
2024/04/27 06:03:53;;;;;;;6.93;6.13;;;10.40;99.90;;;;;;5417120;26;20315;-72
2024/04/27 06:06:19;;;;;;;7.67;5.53;;;10.60;99.90;;;;;;5417375;26;20258;-72
2024/04/27 06:08:45;;;;;;;6.63;5.47;;;10.80;99.90;;;;;;5407945;26;20779;-72
2024/04/27 06:11:11;;;;;;;5.80;5.20;;;11.00;99.90;;;;;;5381475;26;20216;-72
2024/04/27 06:13:37;;;;;;;5.87;4.80;;;11.10;99.90;;;;;;5410106;26;20267;-72
2024/04/27 06:16:03;;;;;;;5.77;4.77;;;11.30;99.90;;;;;;5417183;26;20208;-72
2024/04/27 06:18:29;;;;;;;5.30;4.43;;;11.50;99.90;;;;;;5416896;26;20311;-72
2024/04/27 06:20:55;;;;;;;5.37;4.83;;;11.60;99.90;;;;;;5417055;26;20204;-72
2024/04/27 06:23:20;;;;;;;6.63;4.67;;;11.80;99.90;;;;;;5416652;26;20298;-73
2024/04/27 06:25:46;;;;;;;4.73;4.33;;;11.90;99.90;;;;;;5385890;26;20290;-72
2024/04/27 06:28:11;;;;;;;4.40;4.10;;;12.00;99.90;;;;;;5417007;26;20270;-72
2024/04/27 06:30:37;;;;;;;5.70;4.43;;;12.10;99.90;;;;;;5417204;26;20216;-72
2024/04/27 06:33:03;;;;;;;4.33;3.93;;;12.10;99.90;;;;;;5416622;26;20612;-73
2024/04/27 06:35:28;;;;;;;4.37;4.07;;;12.10;99.90;;;;;;5416713;26;20610;-73
2024/04/27 06:37:54;;;;;;;4.67;4.37;;;12.10;99.90;;;;;;5416750;26;20212;-72
2024/04/27 06:40:20;;;;;;;5.03;4.63;;;12.20;99.90;;;;;;5416133;26;20270;-73
2024/04/27 06:42:45;;;;;;;5.10;4.60;;;12.30;99.90;;;;;;5416389;26;20209;-72
2024/04/27 06:45:11;;;;;;;4.70;4.30;;;12.30;99.90;;;;;;5416549;26;20552;-73
2024/04/27 06:47:36;;;;;;;4.77;4.37;;;12.30;99.90;;;;;;5416519;26;20204;-73
2024/04/27 06:50:02;;;;;;;4.50;4.17;;;12.40;99.90;;;;;;5416318;26;20251;-72
2024/04/27 06:52:28;;;;;;;4.30;4.00;;;12.50;99.90;;;;;;5415913;26;20323;-72
2024/04/27 06:54:53;;;;;;;4.53;4.13;;;12.60;99.90;;;;;;5416437;26;20845;-72
2024/04/27 06:57:19;;;;;;;4.10;3.70;;;12.60;99.90;;;;;;5415568;26;20261;-72
2024/04/27 06:59:45;;;;;;;4.87;4.27;;;12.70;99.90;;;;;;5416069;26;20213;-72
2024/04/27 07:02:10;;;;;;;4.63;4.23;;;12.80;99.90;;;;;;5415618;26;20254;-73
2024/04/27 07:04:36;;;;;;;5.33;4.10;;;12.80;99.90;;;;;;5416487;26;20228;-72
2024/04/27 07:07:02;;;;;;;4.43;3.90;;;12.90;99.90;;;;;;5416170;26;20211;-72
2024/04/27 07:09:28;;;;;;;4.47;4.07;;;13.00;99.90;;;;;;5416143;26;20723;-72
2024/04/27 07:11:53;;;;;;;5.03;4.20;;;13.10;99.90;;;;;;5416825;26;20288;-72
2024/04/27 07:14:19;;;;;;;4.70;4.00;;;13.10;99.90;;;;;;5415617;26;20274;-72
2024/04/27 07:16:45;;;;;;;4.27;3.93;;;13.20;99.90;;;;;;5416240;26;20236;-72
2024/04/27 07:19:10;;;;;;;4.13;3.80;;;13.20;99.90;;;;;;5416195;26;20251;-72
2024/04/27 07:21:36;;;;;;;4.00;3.70;;;13.20;99.90;;;;;;5415115;26;20220;-72
2024/04/27 07:24:02;;;;;;;4.40;4.10;;;13.30;99.90;;;;;;5416237;26;20266;-72
2024/04/27 07:26:29;;;;;;;4.10;3.80;;;13.40;99.90;;;;;;5415790;26;20262;-72
2024/04/27 07:28:55;;;;;;;5.30;4.20;;;13.40;99.90;;;;;;5415573;26;20228;-72
2024/04/27 07:31:21;;;;;;;4.40;4.00;;;13.50;99.90;;;;;;5415547;26;20259;-72
2024/04/27 07:33:47;;;;;;;5.20;3.93;;;13.60;99.90;;;;;;5416060;26;20220;-72
2024/04/27 07:36:12;;;;;;;4.00;3.60;;;13.70;99.90;;;;;;5415704;26;20200;-72
2024/04/27 07:38:38;;;;;;;4.43;3.87;;;13.90;99.90;;;;;;5415956;26;20208;-72
2024/04/27 07:41:03;;;;;;;4.60;4.03;;;13.90;99.90;;;;;;5415554;26;20224;-72
2024/04/27 07:43:29;;;;;;;4.07;3.67;;;14.10;99.90;;;;;;5415713;26;20232;-72
2024/04/27 07:45:55;;;;;;;4.53;4.03;;;14.20;99.90;;;;;;5415912;26;20317;-72
2024/04/27 07:48:20;;;;;;;4.37;4.07;;;14.30;99.90;;;;;;5415688;26;20218;-72
2024/04/27 07:50:46;;;;;;;4.30;3.83;;;14.40;99.90;;;;;;5415625;26;20250;-72
2024/04/27 07:53:12;;;;;;;4.93;4.47;;;14.60;99.90;;;;;;5415887;26;20220;-72
2024/04/27 07:55:37;;;;;;;4.03;3.73;;;14.70;99.90;;;;;;5415799;26;20262;-72
2024/04/27 07:58:03;;;;;;;4.40;4.00;;;14.80;99.90;;;;;;5415450;26;20597;-72
2024/04/27 08:00:28;;;;;;;4.83;4.33;;;14.70;99.90;;;;;;5415600;26;20356;-72
2024/04/27 08:02:54;;;;;;;4.53;4.13;;;14.60;99.90;;;;;;5415127;26;20244;-72
2024/04/27 08:05:20;;;;;;;4.40;3.80;;;14.50;99.90;;;;;;5415568;26;20687;-72
2024/04/27 08:07:47;;;;;;;6.07;3.93;;;14.30;99.90;;;;;;5415216;26;20707;-72
2024/04/27 08:10:13;;;;;;;4.50;4.10;;;14.20;99.90;;;;;;5414500;26;20239;-72
2024/04/27 08:12:39;;;;;;;4.53;4.13;;;14.10;99.90;;;;;;5415361;26;20705;-72
2024/04/27 08:15:05;;;;;;;6.50;4.27;;;13.90;99.90;;;;;;5415790;26;20216;-72
2024/04/27 08:17:31;;;;;;;4.37;3.90;;;13.70;99.90;;;;;;5415334;26;20723;-72
2024/04/27 08:19:56;;;;;;;4.50;4.10;;;13.60;99.90;;;;;;5415402;26;20263;-72
2024/04/27 08:22:22;;;;;;;4.60;4.20;;;13.50;99.90;;;;;;5415255;26;20250;-72
2024/04/27 08:24:48;;;;;;;4.13;3.83;;;13.50;99.90;;;;;;5413965;26;20271;-72
2024/04/27 08:27:14;;;;;;;4.30;4.00;;;13.50;99.90;;;;;;5415092;26;20224;-72
2024/04/27 08:29:39;;;;;;;4.37;4.00;;;13.50;99.90;;;;;;5414985;26;20765;-72
2024/04/27 08:32:05;;;;;;;4.10;3.80;;;13.50;99.90;;;;;;5414754;26;20208;-72
2024/04/27 08:34:30;;;;;;;4.67;4.27;;;13.50;99.90;;;;;;5415048;26;20262;-71
2024/04/27 08:36:56;;;;;;;4.37;3.97;;;13.50;99.90;;;;;;5394098;26;20227;-72
2024/04/27 08:39:22;;;;;;;5.00;4.10;;;13.40;99.90;;;;;;5379559;26;20205;-71
2024/04/27 08:41:48;;;;;;;3.87;3.57;;;13.30;99.90;;;;;;5348695;26;20233;-71
2024/04/27 08:44:15;;;;;;;4.47;3.70;;;13.30;99.90;;;;;;5383182;26;20295;-72
2024/04/27 08:46:40;;;;;;;4.30;4.00;;;13.30;99.90;;;;;;5393693;26;20619;-72
2024/04/27 08:49:06;;;;;;;4.27;3.87;;;13.30;99.90;;;;;;5414698;26;20216;-71
2024/04/27 08:51:33;;;;;;;5.67;4.07;;;13.40;99.90;;;;;;5414197;26;20553;-72
2024/04/27 08:54:02;;;;;;;4.03;3.73;;;13.60;99.90;;;;;;5383517;26;20558;-71
2024/04/27 08:56:39;;;;;;;3.90;3.60;;;13.70;99.90;;;;;;5414327;26;20247;-71
2024/04/27 08:59:07;;;;;;;7.37;3.70;;;13.70;99.90;;;;;;5414815;26;20216;-72
2024/04/27 09:01:33;;;;;;;4.60;4.10;;;13.80;99.90;;;;;;5414366;26;20216;-71
2024/04/27 09:03:59;;;;;;;4.50;3.70;;;14.00;99.90;;;;;;5414949;26;20240;-73
2024/04/27 09:06:25;;;;;;;4.07;3.77;;;14.10;99.90;;;;;;5414958;26;20242;-73
2024/04/27 09:08:54;;;;;;;4.33;4.00;;;14.30;99.90;;;;;;5414754;26;20258;-71
2024/04/27 09:11:21;;;;;;;4.30;3.90;;;14.70;99.90;;;;;;5414094;26;20212;-72
2024/04/27 09:13:47;;;;;;;4.33;3.90;;;15.00;99.90;;;;;;5405354;26;20304;-72
2024/04/27 09:16:16;;;;;;;4.57;3.63;;;15.50;99.90;;;;;;5379259;26;20342;-72
2024/04/27 09:18:41;;;;;;;4.10;3.70;;;15.90;99.90;;;;;;5378848;26;20743;-72
2024/04/27 09:21:07;;;;;;;3.80;3.50;;;16.30;99.90;;;;;;5378319;26;20213;-72
2024/04/27 09:23:40;;;;;;;3.77;3.57;;;16.60;99.90;;;;;;5378284;26;20776;-72
2024/04/27 09:26:06;;;;;;;3.97;3.57;;;17.00;99.90;;;;;;5378682;26;20206;-72
2024/04/27 09:28:43;;;;;;;6.27;4.33;;;17.10;99.90;;;;;;5377794;26;20210;-72
2024/04/27 09:31:09;;;;;;;3.17;2.97;;;17.30;99.90;;;;;;5378399;26;20255;-72
2024/04/27 09:33:35;;;;;;;3.87;3.40;;;17.40;99.90;;;;;;5378258;26;20289;-71
2024/04/27 09:36:02;;;;;;;3.90;3.60;;;17.40;99.90;;;;;;5378828;26;20213;-71
2024/04/27 09:38:31;;;;;;;5.17;3.03;;;17.60;99.90;;;;;;5383699;26;20317;-71
2024/04/27 09:41:07;;;;;;;3.57;3.27;;;17.70;99.90;;;;;;5413433;26;20355;-71
2024/04/27 09:44:09;;;;;;;3.87;3.30;;;17.80;99.90;;;;;;5412798;26;20669;-72
2024/04/27 09:46:47;;;;;;;3.73;3.40;;;17.90;99.90;;;;;;5413904;26;20224;-71
2024/04/27 09:49:28;;;;;;;4.13;3.73;;;18.20;99.90;;;;;;5413759;26;20347;-71
2024/04/27 09:51:57;;;;;;;3.73;3.43;;;18.40;99.90;;;;;;5378415;26;20598;-72
2024/04/27 09:54:26;;;;;;;4.23;3.83;;;18.50;99.90;;;;;;5378169;26;20226;-72
2024/04/27 09:56:55;;;;;;;3.87;3.57;;;18.50;99.90;;;;;;5378681;26;20317;-72
2024/04/27 09:59:22;;;;;;;3.70;3.50;;;18.40;99.90;;;;;;5403270;26;20220;-72
2024/04/27 10:01:50;;;;;;;4.03;3.70;;;18.30;99.90;;;;;;5414573;26;20263;-72
2024/04/27 10:04:19;;;;;;;3.70;3.40;;;18.00;99.90;;;;;;5414339;26;20263;-71
2024/04/27 10:06:58;;;;;;;3.50;3.20;;;17.90;99.90;;;;;;5383026;26;20683;-72
2024/04/27 10:09:35;;;;;;;4.67;3.40;;;17.90;99.90;;;;;;5412730;26;20317;-72
2024/04/27 10:12:02;;;;;;;3.50;3.20;;;17.80;99.90;;;;;;5413612;26;20208;-72
2024/04/27 10:14:28;;;;;;;4.27;3.40;;;17.80;99.90;;;;;;5413518;26;20220;-72
2024/04/27 10:17:11;;;;;;;5.10;3.20;;;17.80;99.90;;;;;;5410665;26;20582;-72
2024/04/27 10:19:57;;;;;;;3.97;3.60;;;17.80;99.90;;;;;;5413473;26;20217;-76
2024/04/27 10:22:29;;;;;;;3.30;3.00;;;17.80;99.90;;;;;;5412320;26;20723;-72
2024/04/27 10:24:58;;;;;;;3.37;3.07;;;17.90;99.90;;;;;;5394220;26;20239;-73
2024/04/27 10:27:25;;;;;;;4.50;3.40;;;18.10;99.90;;;;;;5413681;26;20775;-72
2024/04/27 10:29:50;;;;;;;3.17;2.97;;;18.10;99.90;;;;;;5413315;26;20259;-72
2024/04/27 10:32:18;;;;;;;3.20;2.90;;;18.10;99.90;;;;;;5413098;26;20216;-72
2024/04/27 10:34:46;;;;;;;3.33;3.13;;;18.10;99.90;;;;;;5415276;26;20243;-72
2024/04/27 10:37:12;;;;;;;5.17;3.10;;;18.20;99.90;;;;;;5415534;26;20205;-72
2024/04/27 10:39:49;;;;;;;3.28;3.08;;;18.40;99.90;;;;;;5415406;26;20247;-73
2024/04/27 10:42:16;;;;;;;3.27;2.97;;;18.40;99.90;;;;;;5416104;26;20691;-72
2024/04/27 10:44:41;;;;;;;2.97;2.78;;;18.60;99.90;;;;;;5416400;26;20611;-73
2024/04/27 10:47:07;;;;;;;3.30;3.00;;;18.80;99.90;;;;;;5416905;26;20216;-73
2024/04/27 10:49:34;;;;;;;4.60;3.00;;;19.00;99.90;;;;;;5416703;26;20263;-72
2024/04/27 10:51:59;;;;;;;2.88;2.67;;;19.20;99.90;;;;;;5417157;26;20250;-72
2024/04/27 10:54:25;;;;;;;3.33;2.85;;;19.40;99.90;;;;;;5416271;26;20230;-72
2024/04/27 10:56:51;;;;;;;3.03;2.83;;;19.50;99.90;;;;;;5416752;26;20216;-72
2024/04/27 10:59:17;;;;;;;3.00;2.80;;;19.80;99.90;;;;;;5416436;26;20205;-73
2024/04/27 11:01:43;;;;;;;3.00;2.80;;;20.00;99.90;;;;;;5385157;26;20262;-72
2024/04/27 11:04:09;;;;;;;2.80;2.60;;;20.10;99.90;;;;;;5413887;26;20232;-72
2024/04/27 11:06:36;;;;;;;2.90;2.70;;;20.10;99.90;;;;;;5416250;26;20209;-72
2024/04/27 11:09:02;;;;;;;3.05;2.72;;;20.10;99.90;;;;;;5416782;26;20608;-73
2024/04/27 11:11:28;;;;;;;2.92;2.72;;;20.00;99.90;;;;;;5416323;26;20291;-72
2024/04/27 11:13:54;;;;;;;4.00;3.57;;;19.80;99.90;;;;;;5415138;26;20294;-72
2024/04/27 11:16:24;;;;;;;2.90;2.70;;;19.60;99.90;;;;;;5416815;26;20280;-72
2024/04/27 11:18:50;;;;;;;4.78;2.80;;;19.40;99.90;;;;;;5417082;26;20727;-72
2024/04/27 11:21:23;;;;;;;3.00;2.80;;;19.50;99.90;;;;;;5416310;26;20271;-73
2024/04/27 11:23:49;;;;;;;3.00;2.80;;;19.80;99.90;;;;;;5416448;26;20650;-71
2024/04/27 11:26:14;;;;;;;3.50;2.63;;;20.00;99.90;;;;;;5416397;26;20216;-71
2024/04/27 11:28:40;;;;;;;3.22;2.92;;;20.20;99.90;;;;;;5416226;26;20254;-71
2024/04/27 11:31:06;;;;;;;2.80;2.60;;;20.20;99.90;;;;;;5416346;26;20321;-72
2024/04/27 11:33:31;;;;;;;3.05;2.75;;;20.20;99.90;;;;;;5415912;26;20224;-72
2024/04/27 11:35:57;;;;;;;2.85;2.50;;;20.30;99.90;;;;;;5416387;26;20219;-72
2024/04/27 11:38:24;;;;;;;2.85;2.65;;;20.50;99.90;;;;;;5416271;26;20220;-73
2024/04/27 11:40:50;;;;;;;2.60;2.40;;;20.80;99.90;;;;;;5415809;26;20231;-72
2024/04/27 11:43:16;;;;;;;3.28;2.63;;;21.10;99.90;;;;;;5415994;26;20221;-72
2024/04/27 11:45:41;;;;;;;2.90;2.70;;;21.50;99.90;;;;;;5416342;26;20216;-72
2024/04/27 11:48:08;;;;;;;2.58;2.38;;;22.10;99.90;;;;;;5416285;26;20204;-72
2024/04/27 11:50:33;;;;;;;2.22;2.13;;;22.70;98.50;;;;;;5416368;26;20228;-73
2024/04/27 11:52:59;;;;;;;3.28;2.40;;;22.80;94.50;;;;;;5416004;26;20224;-73
2024/04/27 11:55:25;;;;;;;2.65;2.33;;;22.80;94.40;;;;;;5416327;26;20258;-71
2024/04/27 11:57:51;;;;;;;3.38;2.38;;;23.00;93.30;;;;;;5416104;26;20208;-72
2024/04/27 12:00:17;;;;;;;2.63;2.42;;;22.80;92.00;;;;;;5416090;26;20767;-72
2024/04/27 12:02:42;;;;;;;2.70;2.50;;;22.30;93.50;;;;;;5415648;26;20328;-73
2024/04/27 12:05:08;;;;;;;6.35;2.70;;;21.80;93.10;;;;;;5416233;26;20254;-73
2024/04/27 12:07:34;;;;;;;4.95;3.42;;;21.20;94.10;;;;;;5416090;26;20271;-73
2024/04/27 12:09:59;;;;;;;2.53;2.33;;;20.70;96.30;;;;;;5415433;26;20232;-72
2024/04/27 12:12:25;;;;;;;3.03;2.40;;;20.30;99.90;;;;;;5415465;26;20262;-73
2024/04/27 12:14:50;;;;;;;2.55;2.40;;;20.10;99.30;;;;;;5415931;26;20271;-73
2024/04/27 12:17:16;;;;;;;2.75;2.55;;;20.00;99.90;;;;;;5415653;26;20216;-73
2024/04/27 12:19:42;;;;;;;2.60;2.40;;;20.00;99.90;;;;;;5415650;26;20288;-73
2024/04/27 12:22:08;;;;;;;2.70;2.50;;;20.10;99.90;;;;;;5415632;26;20262;-73
2024/04/27 12:24:33;;;;;;;3.40;2.38;;;20.50;99.90;;;;;;5414636;26;20232;-72
2024/04/27 12:26:59;;;;;;;2.60;2.40;;;20.90;99.90;;;;;;5415698;26;20221;-74
2024/04/27 12:29:25;;;;;;;2.80;2.40;;;21.20;99.90;;;;;;5415896;26;20212;-73
2024/04/27 12:31:51;;;;;;;2.20;2.10;;;21.60;97.80;;;;;;5415560;26;20570;-72
2024/04/27 12:34:16;;;;;;;2.05;1.92;;;21.80;92.30;;;;;;5415287;26;20239;-72
2024/04/27 12:36:42;;;;;;;3.00;2.20;;;21.70;92.90;;;;;;5415325;26;20270;-73
2024/04/27 12:39:07;;;;;;;2.33;1.95;;;21.50;89.90;;;;;;5415302;26;20208;-73
2024/04/27 12:41:33;;;;;;;2.38;2.17;;;21.40;88.70;;;;;;5415111;26;20208;-72